Time,TemperatureF,DewpointF,PressureIn,WindDirection,WindDirectionDegrees,WindSpeedMPH,WindSpeedGustMPH,Humidity,HourlyPrecipIn,Conditions,Clouds,dailyrainin,SoftwareType,DateUTC
2013-09-16 00:01:00,52.9,47.9,30.22,NNE,22,3.8,12.8,83,0.00,,,0.00,WUHU21623XXSP,2013-09-16 05:01:00,
2013-09-16 00:06:00,52.9,47.9,30.22,NNE,22,4.7,12.8,83,0.00,,,0.00,WUHU21623XXSP,2013-09-16 05:06:00,
2013-09-16 00:11:00,52.7,47.7,30.22,NNE,22,1.8,6.3,83,0.00,,,0.00,WUHU21623XXSP,2013-09-16 05:11:00,
2013-09-16 00:16:00,52.5,46.9,30.22,North,0,4.0,10.3,81,0.00,,,0.00,WUHU21623XXSP,2013-09-16 05:16:00,
2013-09-16 00:21:00,52.3,46.7,30.22,NE,45,2.9,10.3,81,0.00,,,0.00,WUHU21623XXSP,2013-09-16 05:21:00,
2013-09-16 00:26:00,52.3,47.0,30.22,NNE,22,3.4,6.7,82,0.00,,,0.00,WUHU21623XXSP,2013-09-16 05:26:00,
2013-09-16 00:31:00,52.2,46.5,30.22,NE,45,2.0,7.2,81,0.00,,,0.00,WUHU21623XXSP,2013-09-16 05:31:00,
2013-09-16 00:36:00,52.2,46.2,30.23,NNE,22,3.8,11.4,80,0.00,,,0.00,WUHU21623XXSP,2013-09-16 05:36:00,
2013-09-16 00:41:00,52.2,46.5,30.22,ENE,67,2.0,11.4,81,0.00,,,0.00,WUHU21623XXSP,2013-09-16 05:41:00,
2013-09-16 00:46:00,52.0,46.3,30.22,NE,45,0.0,6.7,81,0.00,,,0.00,WUHU21623XXSP,2013-09-16 05:46:00,
2013-09-16 00:51:00,52.0,46.7,30.23,NNW,337,0.0,4.0,82,0.00,,,0.00,WUHU21623XXSP,2013-09-16 05:51:00,
2013-09-16 00:56:00,51.6,46.0,30.23,ENE,67,0.0,10.1,81,0.00,,,0.00,WUHU21623XXSP,2013-09-16 05:56:00,
2013-09-16 01:01:00,51.6,46.0,30.23,NE,45,0.0,10.1,81,0.00,,,0.00,WUHU21623XXSP,2013-09-16 06:01:00,
2013-09-16 01:06:00,51.4,45.8,30.24,North,0,2.7,8.5,81,0.00,,,0.00,WUHU21623XXSP,2013-09-16 06:06:00,
2013-09-16 01:11:00,51.3,45.3,30.24,NNE,22,1.3,8.5,80,0.00,,,0.00,WUHU21623XXSP,2013-09-16 06:11:00,
2013-09-16 01:16:00,51.1,45.1,30.25,West,270,0.0,7.4,80,0.00,,,0.00,WUHU21623XXSP,2013-09-16 06:16:00,
2013-09-16 01:21:00,50.7,44.4,30.25,NNW,337,0.0,5.8,79,0.00,,,0.00,WUHU21623XXSP,2013-09-16 06:21:00,
2013-09-16 01:26:00,50.5,44.3,30.25,NNE,22,0.0,5.8,79,0.00,,,0.00,WUHU21623XXSP,2013-09-16 06:26:00,
2013-09-16 01:31:00,50.4,44.1,30.24,North,0,1.6,4.0,79,0.00,,,0.00,WUHU21623XXSP,2013-09-16 06:31:00,
2013-09-16 01:36:00,50.2,43.9,30.24,NNE,22,1.8,4.0,79,0.00,,,0.00,WUHU21623XXSP,2013-09-16 06:36:00,
2013-09-16 01:41:00,49.8,43.9,30.25,NNE,22,0.0,3.6,80,0.00,,,0.00,WUHU21623XXSP,2013-09-16 06:41:00,
2013-09-16 01:46:00,49.8,43.9,30.25,NNE,22,0.0,3.6,80,0.00,,,0.00,WUHU21623XXSP,2013-09-16 06:46:00,
2013-09-16 01:51:00,49.6,43.7,30.25,NE,45,2.0,3.8,80,0.00,,,0.00,WUHU21623XXSP,2013-09-16 06:51:00,
2013-09-16 01:56:00,49.6,44.0,30.25,North,0,1.3,7.2,81,0.00,,,0.00,WUHU21623XXSP,2013-09-16 06:56:00,
2013-09-16 02:01:00,49.5,43.8,30.25,NNW,337,2.2,7.2,81,0.00,,,0.00,WUHU21623XXSP,2013-09-16 07:01:00,
2013-09-16 02:06:00,49.3,43.6,30.25,SSW,202,1.3,6.0,81,0.00,,,0.00,WUHU21623XXSP,2013-09-16 07:06:00,
2013-09-16 02:11:00,49.1,43.8,30.25,NW,315,0.0,2.9,82,0.00,,,0.00,WUHU21623XXSP,2013-09-16 07:11:00,
2013-09-16 02:16:00,48.7,43.4,30.25,NE,45,0.7,4.7,82,0.00,,,0.00,WUHU21623XXSP,2013-09-16 07:16:00,
2013-09-16 02:21:00,48.6,43.3,30.25,NNE,22,0.9,6.9,82,0.00,,,0.00,WUHU21623XXSP,2013-09-16 07:21:00,
2013-09-16 02:26:00,48.4,43.1,30.25,North,0,3.1,6.9,82,0.00,,,0.00,WUHU21623XXSP,2013-09-16 07:26:00,
2013-09-16 02:31:00,48.0,42.7,30.25,NE,45,0.0,3.1,82,0.00,,,0.00,WUHU21623XXSP,2013-09-16 07:31:00,
2013-09-16 02:36:00,47.8,42.6,30.25,NE,45,0.0,2.9,82,0.00,,,0.00,WUHU21623XXSP,2013-09-16 07:36:00,
2013-09-16 02:41:00,47.5,42.2,30.26,NNE,22,0.0,2.9,82,0.00,,,0.00,WUHU21623XXSP,2013-09-16 07:41:00,
2013-09-16 02:46:00,47.1,42.2,30.26,NNE,22,0.0,4.5,83,0.00,,,0.00,WUHU21623XXSP,2013-09-16 07:46:00,
2013-09-16 02:51:00,46.9,42.0,30.26,NNE,22,0.0,4.5,83,0.00,,,0.00,WUHU21623XXSP,2013-09-16 07:51:00,
2013-09-16 02:56:00,46.6,41.7,30.26,NNE,22,0.0,0.0,83,0.00,,,0.00,WUHU21623XXSP,2013-09-16 07:56:00,
2013-09-16 03:01:00,46.4,41.9,30.26,North,0,0.0,0.0,84,0.00,,,0.00,WUHU21623XXSP,2013-09-16 08:01:00,
2013-09-16 03:06:00,46.2,41.7,30.26,NNE,22,0.0,0.0,84,0.00,,,0.00,WUHU21623XXSP,2013-09-16 08:06:00,
2013-09-16 03:11:00,46.0,41.5,30.26,NE,45,0.0,0.0,84,0.00,,,0.00,WUHU21623XXSP,2013-09-16 08:11:00,
2013-09-16 03:16:00,45.7,41.5,30.26,NNE,22,0.0,0.0,85,0.00,,,0.00,WUHU21623XXSP,2013-09-16 08:16:00,
2013-09-16 03:21:00,45.3,41.1,30.26,NNE,22,0.0,0.0,85,0.00,,,0.00,WUHU21623XXSP,2013-09-16 08:21:00,
2013-09-16 03:26:00,45.0,40.7,30.26,NNE,22,0.0,0.0,85,0.00,,,0.00,WUHU21623XXSP,2013-09-16 08:26:00,
2013-09-16 03:31:00,44.8,40.9,30.27,NE,45,1.3,1.8,86,0.00,,,0.00,WUHU21623XXSP,2013-09-16 08:31:00,
2013-09-16 03:36:00,44.4,40.5,30.27,NNE,22,0.0,1.8,86,0.00,,,0.00,WUHU21623XXSP,2013-09-16 08:36:00,
2013-09-16 03:41:00,44.4,40.8,30.26,NE,45,0.0,1.8,87,0.00,,,0.00,WUHU21623XXSP,2013-09-16 08:41:00,
2013-09-16 03:46:00,44.2,40.6,30.27,NE,45,0.0,0.0,87,0.00,,,0.00,WUHU21623XXSP,2013-09-16 08:46:00,
2013-09-16 03:51:00,43.9,40.3,30.27,NNE,22,0.0,0.0,87,0.00,,,0.00,WUHU21623XXSP,2013-09-16 08:51:00,
2013-09-16 03:56:00,43.5,39.9,30.27,NNE,22,0.0,0.0,87,0.00,,,0.00,WUHU21623XXSP,2013-09-16 08:56:00,
2013-09-16 04:01:00,43.3,39.7,30.27,North,0,0.0,0.0,87,0.00,,,0.00,WUHU21623XXSP,2013-09-16 09:01:00,
2013-09-16 04:06:00,43.3,39.7,30.27,South,180,0.0,0.0,87,0.00,,,0.00,WUHU21623XXSP,2013-09-16 09:06:00,
2013-09-16 04:11:00,43.2,39.5,30.27,NW,315,0.0,0.0,87,0.00,,,0.00,WUHU21623XXSP,2013-09-16 09:11:00,
2013-09-16 04:16:00,43.3,40.0,30.27,NNE,22,0.0,0.0,88,0.00,,,0.00,WUHU21623XXSP,2013-09-16 09:16:00,
2013-09-16 04:21:00,43.3,40.0,30.27,NNW,337,0.0,2.2,88,0.00,,,0.00,WUHU21623XXSP,2013-09-16 09:21:00,
2013-09-16 04:26:00,43.3,39.7,30.28,North,0,0.0,2.2,87,0.00,,,0.00,WUHU21623XXSP,2013-09-16 09:26:00,
2013-09-16 04:31:00,43.2,39.5,30.28,North,0,0.0,2.2,87,0.00,,,0.00,WUHU21623XXSP,2013-09-16 09:31:00,
2013-09-16 04:36:00,43.2,39.5,30.28,NNE,22,0.0,2.0,87,0.00,,,0.00,WUHU21623XXSP,2013-09-16 09:36:00,
2013-09-16 04:41:00,43.0,39.4,30.28,NNE,22,0.0,2.0,87,0.00,,,0.00,WUHU21623XXSP,2013-09-16 09:41:00,
2013-09-16 04:46:00,43.0,39.4,30.28,NE,45,0.0,2.0,87,0.00,,,0.00,WUHU21623XXSP,2013-09-16 09:46:00,
2013-09-16 04:51:00,42.8,39.2,30.27,NE,45,0.0,3.1,87,0.00,,,0.00,WUHU21623XXSP,2013-09-16 09:51:00,
2013-09-16 04:56:00,43.0,39.4,30.27,NNE,22,0.0,3.1,87,0.00,,,0.00,WUHU21623XXSP,2013-09-16 09:56:00,
2013-09-16 05:01:00,43.0,39.4,30.28,North,0,0.0,2.2,87,0.00,,,0.00,WUHU21623XXSP,2013-09-16 10:01:00,
2013-09-16 05:06:00,43.0,39.4,30.28,ENE,67,0.0,2.7,87,0.00,,,0.00,WUHU21623XXSP,2013-09-16 10:06:00,
2013-09-16 05:11:00,42.8,39.2,30.28,NNE,22,0.0,2.7,87,0.00,,,0.00,WUHU21623XXSP,2013-09-16 10:11:00,
2013-09-16 05:16:00,42.6,39.0,30.28,NNE,22,0.0,1.3,87,0.00,,,0.00,WUHU21623XXSP,2013-09-16 10:16:00,
2013-09-16 05:21:00,42.4,38.8,30.28,ENE,67,0.0,0.0,87,0.00,,,0.00,WUHU21623XXSP,2013-09-16 10:21:00,
2013-09-16 05:26:00,42.1,38.5,30.28,NW,315,0.0,0.0,87,0.00,,,0.00,WUHU21623XXSP,2013-09-16 10:26:00,
2013-09-16 05:31:00,41.7,38.1,30.29,NW,315,0.0,0.0,87,0.00,,,0.00,WUHU21623XXSP,2013-09-16 10:31:00,
2013-09-16 05:36:00,41.4,38.0,30.29,NW,315,0.0,0.0,88,0.00,,,0.00,WUHU21623XXSP,2013-09-16 10:36:00,
2013-09-16 05:41:00,41.0,37.7,30.29,NW,315,0.0,0.0,88,0.00,,,0.00,WUHU21623XXSP,2013-09-16 10:41:00,
2013-09-16 05:46:00,40.8,37.5,30.29,NW,315,0.0,0.0,88,0.00,,,0.00,WUHU21623XXSP,2013-09-16 10:46:00,
2013-09-16 05:51:00,40.6,37.3,30.29,NW,315,0.0,0.0,88,0.00,,,0.00,WUHU21623XXSP,2013-09-16 10:51:00,
2013-09-16 05:56:00,40.5,37.1,30.29,NW,315,0.0,0.0,88,0.00,,,0.00,WUHU21623XXSP,2013-09-16 10:56:00,
2013-09-16 06:01:00,40.3,37.3,30.30,NNW,337,0.0,0.0,89,0.00,,,0.00,WUHU21623XXSP,2013-09-16 11:01:00,
2013-09-16 06:06:00,40.5,37.5,30.30,NNW,337,0.0,0.0,89,0.00,,,0.00,WUHU21623XXSP,2013-09-16 11:06:00,
2013-09-16 06:11:00,40.6,37.9,30.30,North,0,0.0,0.0,90,0.00,,,0.00,WUHU21623XXSP,2013-09-16 11:11:00,
2013-09-16 06:16:00,40.6,37.9,30.30,NNE,22,0.0,0.0,90,0.00,,,0.00,WUHU21623XXSP,2013-09-16 11:16:00,
2013-09-16 06:21:00,40.8,38.1,30.30,NNE,22,0.0,0.0,90,0.00,,,0.00,WUHU21623XXSP,2013-09-16 11:21:00,
2013-09-16 06:26:00,40.8,38.1,30.30,NNE,22,0.0,0.0,90,0.00,,,0.00,WUHU21623XXSP,2013-09-16 11:26:00,
2013-09-16 06:31:00,40.8,38.1,30.30,NNW,337,0.0,0.0,90,0.00,,,0.00,WUHU21623XXSP,2013-09-16 11:31:00,
2013-09-16 06:36:00,40.6,37.9,30.31,North,0,0.0,0.0,90,0.00,,,0.00,WUHU21623XXSP,2013-09-16 11:36:00,
2013-09-16 06:41:00,40.8,38.1,30.31,NW,315,0.0,0.0,90,0.00,,,0.00,WUHU21623XXSP,2013-09-16 11:41:00,
2013-09-16 06:46:00,41.0,38.3,30.32,NW,315,0.0,1.8,90,0.00,,,0.00,WUHU21623XXSP,2013-09-16 11:46:00,
2013-09-16 06:51:00,41.2,38.8,30.31,NW,315,0.0,1.8,91,0.00,,,0.00,WUHU21623XXSP,2013-09-16 11:51:00,
2013-09-16 06:56:00,41.2,38.8,30.31,NW,315,0.0,1.3,91,0.00,,,0.00,WUHU21623XXSP,2013-09-16 11:56:00,
2013-09-16 07:01:00,41.4,38.8,30.31,NNW,337,0.0,1.3,91,0.00,,,0.00,WUHU21623XXSP,2013-09-16 12:01:00,
2013-09-16 07:06:00,41.2,38.8,30.31,NE,45,0.0,0.0,91,0.00,,,0.00,WUHU21623XXSP,2013-09-16 12:06:00,
2013-09-16 07:11:00,41.2,38.8,30.31,NNE,22,0.0,1.6,91,0.00,,,0.00,WUHU21623XXSP,2013-09-16 12:11:00,
2013-09-16 07:16:00,41.4,38.9,30.31,NNE,22,0.0,1.6,91,0.00,,,0.00,WUHU21623XXSP,2013-09-16 12:16:00,
2013-09-16 07:21:00,41.4,38.9,30.31,NNW,337,0.0,0.0,91,0.00,,,0.00,WUHU21623XXSP,2013-09-16 12:21:00,
2013-09-16 07:26:00,41.5,39.4,30.31,NE,45,0.0,1.3,92,0.00,,,0.00,WUHU21623XXSP,2013-09-16 12:26:00,
2013-09-16 07:31:00,41.7,39.6,30.31,North,0,0.0,1.3,92,0.00,,,0.00,WUHU21623XXSP,2013-09-16 12:31:00,
2013-09-16 07:36:00,42.1,39.9,30.31,NNW,337,1.3,1.6,92,0.00,,,0.00,WUHU21623XXSP,2013-09-16 12:36:00,
2013-09-16 07:41:00,42.4,40.3,30.32,NNE,22,2.7,2.7,92,0.00,,,0.00,WUHU21623XXSP,2013-09-16 12:41:00,
2013-09-16 07:46:00,42.8,40.6,30.32,North,0,0.9,2.9,92,0.00,,,0.00,WUHU21623XXSP,2013-09-16 12:46:00,
2013-09-16 07:51:00,43.3,41.2,30.32,East,90,0.0,3.4,92,0.00,,,0.00,WUHU21623XXSP,2013-09-16 12:51:00,
2013-09-16 07:56:00,43.5,41.4,30.32,NNW,337,1.3,3.4,92,0.00,,,0.00,WUHU21623XXSP,2013-09-16 12:56:00,
2013-09-16 08:01:00,43.9,41.7,30.32,NNE,22,2.9,3.6,92,0.00,,,0.00,WUHU21623XXSP,2013-09-16 13:01:00,
2013-09-16 08:06:00,44.4,42.3,30.32,NNE,22,3.6,4.5,92,0.00,,,0.00,WUHU21623XXSP,2013-09-16 13:06:00,
2013-09-16 08:11:00,45.0,42.5,30.32,NW,315,0.0,5.4,91,0.00,,,0.00,WUHU21623XXSP,2013-09-16 13:11:00,
2013-09-16 08:16:00,45.9,43.4,30.32,NE,45,2.5,5.4,91,0.00,,,0.00,WUHU21623XXSP,2013-09-16 13:16:00,
2013-09-16 08:21:00,46.6,43.9,30.32,North,0,1.3,3.6,90,0.00,,,0.00,WUHU21623XXSP,2013-09-16 13:21:00,
2013-09-16 08:26:00,47.5,44.5,30.32,NNW,337,2.7,4.0,89,0.00,,,0.00,WUHU21623XXSP,2013-09-16 13:26:00,
2013-09-16 08:31:00,48.2,45.2,30.32,NNE,22,1.3,4.0,89,0.00,,,0.00,WUHU21623XXSP,2013-09-16 13:31:00,
2013-09-16 08:36:00,49.1,45.7,30.33,North,0,3.1,3.8,88,0.00,,,0.00,WUHU21623XXSP,2013-09-16 13:36:00,
2013-09-16 08:41:00,49.6,45.9,30.33,North,0,0.0,4.5,87,0.00,,,0.00,WUHU21623XXSP,2013-09-16 13:41:00,
2013-09-16 08:46:00,50.2,46.1,30.32,North,0,2.7,4.9,86,0.00,,,0.00,WUHU21623XXSP,2013-09-16 13:46:00,
2013-09-16 08:51:00,50.5,46.1,30.33,NE,45,1.6,4.9,85,0.00,,,0.00,WUHU21623XXSP,2013-09-16 13:51:00,
2013-09-16 08:56:00,51.4,46.7,30.32,NE,45,2.5,4.9,84,0.00,,,0.00,WUHU21623XXSP,2013-09-16 13:56:00,
2013-09-16 09:01:00,51.8,46.5,30.32,NNW,337,4.0,6.0,82,0.00,,,0.00,WUHU21623XXSP,2013-09-16 14:01:00,
2013-09-16 09:06:00,52.3,46.0,30.32,NNE,22,4.9,6.0,79,0.00,,,0.00,WUHU21623XXSP,2013-09-16 14:06:00,
2013-09-16 09:11:00,52.2,45.5,30.33,NNE,22,6.0,9.4,78,0.00,,,0.00,WUHU21623XXSP,2013-09-16 14:11:00,
2013-09-16 09:16:00,52.5,46.2,30.33,NNW,337,6.9,9.4,79,0.00,,,0.00,WUHU21623XXSP,2013-09-16 14:16:00,
2013-09-16 09:21:00,53.2,46.2,30.33,NNE,22,3.8,7.4,77,0.00,,,0.00,WUHU21623XXSP,2013-09-16 14:21:00,
2013-09-16 09:26:00,53.4,46.0,30.34,NNW,337,3.6,8.9,76,0.00,,,0.00,WUHU21623XXSP,2013-09-16 14:26:00,
2013-09-16 09:31:00,54.0,46.5,30.34,NNE,22,5.4,8.9,76,0.00,,,0.00,WUHU21623XXSP,2013-09-16 14:31:00,
2013-09-16 09:36:00,54.0,46.2,30.34,East,90,2.7,9.4,75,0.00,,,0.00,WUHU21623XXSP,2013-09-16 14:36:00,
2013-09-16 09:41:00,54.3,46.9,30.34,NNE,22,5.4,9.4,76,0.00,,,0.00,WUHU21623XXSP,2013-09-16 14:41:00,
2013-09-16 09:46:00,55.0,46.9,30.34,NNE,22,6.9,8.3,74,0.00,,,0.00,WUHU21623XXSP,2013-09-16 14:46:00,
2013-09-16 09:51:00,54.9,46.3,30.34,NNW,337,8.3,8.3,73,0.00,,,0.00,WUHU21623XXSP,2013-09-16 14:51:00,
2013-09-16 09:56:00,55.8,47.6,30.34,West,270,0.0,8.3,74,0.00,,,0.00,WUHU21623XXSP,2013-09-16 14:56:00,
2013-09-16 10:01:00,56.5,47.9,30.35,NW,315,2.2,7.2,73,0.00,,,0.00,WUHU21623XXSP,2013-09-16 15:01:00,
2013-09-16 10:06:00,56.8,46.7,30.35,ENE,67,4.0,10.3,69,0.00,,,0.00,WUHU21623XXSP,2013-09-16 15:06:00,
2013-09-16 10:11:00,56.5,46.4,30.35,NE,45,4.0,10.3,69,0.00,,,0.00,WUHU21623XXSP,2013-09-16 15:11:00,
2013-09-16 10:16:00,56.8,46.3,30.34,North,0,4.5,11.4,68,0.00,,,0.00,WUHU21623XXSP,2013-09-16 15:16:00,
2013-09-16 10:21:00,57.0,46.9,30.35,ENE,67,2.7,11.4,69,0.00,,,0.00,WUHU21623XXSP,2013-09-16 15:21:00,
2013-09-16 10:26:00,57.7,47.2,30.35,NE,45,8.3,8.3,68,0.00,,,0.00,WUHU21623XXSP,2013-09-16 15:26:00,
2013-09-16 10:31:00,57.4,46.9,30.34,North,0,4.7,9.2,68,0.00,,,0.00,WUHU21623XXSP,2013-09-16 15:31:00,
2013-09-16 10:36:00,57.7,47.2,30.34,NNE,22,8.3,9.2,68,0.00,,,0.00,WUHU21623XXSP,2013-09-16 15:36:00,
2013-09-16 10:41:00,57.9,46.2,30.34,North,0,4.0,8.9,65,0.00,,,0.00,WUHU21623XXSP,2013-09-16 15:41:00,
2013-09-16 10:46:00,58.1,47.2,30.34,SSE,157,0.9,8.9,67,0.00,,,0.00,WUHU21623XXSP,2013-09-16 15:46:00,
2013-09-16 10:51:00,57.7,47.2,30.35,West,270,1.6,5.8,68,0.00,,,0.00,WUHU21623XXSP,2013-09-16 15:51:00,
2013-09-16 10:56:00,57.9,46.2,30.34,NW,315,4.3,10.7,65,0.00,,,0.00,WUHU21623XXSP,2013-09-16 15:56:00,
2013-09-16 11:01:00,57.9,46.6,30.35,NNE,22,0.0,10.7,66,0.00,,,0.00,WUHU21623XXSP,2013-09-16 16:01:00,
2013-09-16 11:06:00,58.1,46.8,30.34,NNE,22,9.6,9.6,66,0.00,,,0.00,WUHU21623XXSP,2013-09-16 16:06:00,
2013-09-16 11:11:00,57.9,47.0,30.35,NNE,22,2.5,9.6,67,0.00,,,0.00,WUHU21623XXSP,2013-09-16 16:11:00,
2013-09-16 11:16:00,57.6,46.2,30.35,ESE,112,0.9,8.5,66,0.00,,,0.00,WUHU21623XXSP,2013-09-16 16:16:00,
2013-09-16 11:21:00,58.6,47.7,30.35,SSE,157,3.1,8.5,67,0.00,,,0.00,WUHU21623XXSP,2013-09-16 16:21:00,
2013-09-16 11:26:00,59.4,47.2,30.35,NNE,22,3.6,8.7,64,0.00,,,0.00,WUHU21623XXSP,2013-09-16 16:26:00,
2013-09-16 11:31:00,58.6,46.5,30.35,SE,135,0.0,8.7,64,0.00,,,0.00,WUHU21623XXSP,2013-09-16 16:31:00,
2013-09-16 11:36:00,59.9,47.7,30.35,NNW,337,5.1,8.3,64,0.00,,,0.00,WUHU21623XXSP,2013-09-16 16:36:00,
2013-09-16 11:41:00,60.1,47.0,30.34,WNW,292,0.0,11.0,62,0.00,,,0.00,WUHU21623XXSP,2013-09-16 16:41:00,
2013-09-16 11:46:00,60.6,47.6,30.34,ENE,67,3.4,11.0,62,0.00,,,0.00,WUHU21623XXSP,2013-09-16 16:46:00,
2013-09-16 11:51:00,60.4,47.0,30.35,NNW,337,0.0,10.1,61,0.00,,,0.00,WUHU21623XXSP,2013-09-16 16:51:00,
2013-09-16 11:56:00,61.2,47.3,30.34,NNW,337,0.9,10.1,60,0.00,,,0.00,WUHU21623XXSP,2013-09-16 16:56:00,
2013-09-16 12:01:00,61.3,46.9,30.34,WNW,292,0.0,7.8,59,0.00,,,0.00,WUHU21623XXSP,2013-09-16 17:01:00,
2013-09-16 12:06:00,61.5,47.6,30.35,NE,45,3.6,6.0,60,0.00,,,0.00,WUHU21623XXSP,2013-09-16 17:06:00,
2013-09-16 12:11:00,61.5,46.6,30.35,NNW,337,0.7,5.6,58,0.00,,,0.00,WUHU21623XXSP,2013-09-16 17:11:00,
2013-09-16 12:16:00,62.4,47.4,30.35,NNE,22,2.7,6.9,58,0.00,,,0.00,WUHU21623XXSP,2013-09-16 17:16:00,
2013-09-16 12:21:00,62.4,47.4,30.35,NNE,22,3.6,6.9,58,0.00,,,0.00,WUHU21623XXSP,2013-09-16 17:21:00,
2013-09-16 12:26:00,63.0,47.9,30.35,ENE,67,6.0,6.0,58,0.00,,,0.00,WUHU21623XXSP,2013-09-16 17:26:00,
2013-09-16 12:31:00,62.6,45.6,30.35,NNE,22,4.3,9.6,54,0.00,,,0.00,WUHU21623XXSP,2013-09-16 17:31:00,
2013-09-16 12:36:00,62.2,45.8,30.35,NNE,22,3.4,9.6,55,0.00,,,0.00,WUHU21623XXSP,2013-09-16 17:36:00,
2013-09-16 12:41:00,62.8,46.8,30.35,North,0,6.3,8.1,56,0.00,,,0.00,WUHU21623XXSP,2013-09-16 17:41:00,
2013-09-16 12:46:00,62.6,45.6,30.35,North,0,3.8,8.5,54,0.00,,,0.00,WUHU21623XXSP,2013-09-16 17:46:00,
2013-09-16 12:51:00,62.8,46.8,30.35,NNW,337,4.5,8.5,56,0.00,,,0.00,WUHU21623XXSP,2013-09-16 17:51:00,
2013-09-16 12:56:00,63.1,45.6,30.35,North,0,4.0,8.3,53,0.00,,,0.00,WUHU21623XXSP,2013-09-16 17:56:00,
2013-09-16 13:01:00,63.1,46.1,30.35,WNW,292,1.6,8.3,54,0.00,,,0.00,WUHU21623XXSP,2013-09-16 18:01:00,
2013-09-16 13:06:00,63.3,46.8,30.35,NE,45,4.9,7.2,55,0.00,,,0.00,WUHU21623XXSP,2013-09-16 18:06:00,
2013-09-16 13:11:00,62.4,45.0,30.35,North,0,6.7,9.4,53,0.00,,,0.00,WUHU21623XXSP,2013-09-16 18:11:00,
2013-09-16 13:16:00,62.6,45.2,30.35,ENE,67,0.9,9.4,53,0.00,,,0.00,WUHU21623XXSP,2013-09-16 18:16:00,
2013-09-16 13:21:00,63.1,46.1,30.35,SE,135,0.9,6.9,54,0.00,,,0.00,WUHU21623XXSP,2013-09-16 18:21:00,
2013-09-16 13:26:00,63.7,46.6,30.34,North,0,6.9,6.9,54,0.00,,,0.00,WUHU21623XXSP,2013-09-16 18:26:00,
2013-09-16 13:31:00,63.7,45.6,30.34,NNW,337,1.8,7.2,52,0.00,,,0.00,WUHU21623XXSP,2013-09-16 18:31:00,
2013-09-16 13:36:00,63.7,46.1,30.34,East,90,2.0,7.2,53,0.00,,,0.00,WUHU21623XXSP,2013-09-16 18:36:00,
2013-09-16 13:41:00,64.0,45.5,30.34,NNE,22,1.6,5.6,51,0.00,,,0.00,WUHU21623XXSP,2013-09-16 18:41:00,
2013-09-16 13:46:00,64.2,46.6,30.33,NE,45,1.1,5.4,53,0.00,,,0.00,WUHU21623XXSP,2013-09-16 18:46:00,
2013-09-16 13:51:00,64.2,45.6,30.33,North,0,7.4,7.4,51,0.00,,,0.00,WUHU21623XXSP,2013-09-16 18:51:00,
2013-09-16 13:56:00,63.9,46.8,30.33,SE,135,1.6,7.4,54,0.00,,,0.00,WUHU21623XXSP,2013-09-16 18:56:00,
2013-09-16 14:01:00,64.2,47.1,30.33,SSE,157,1.6,5.6,54,0.00,,,0.00,WUHU21623XXSP,2013-09-16 19:01:00,
2013-09-16 14:06:00,64.2,45.6,30.33,NE,45,0.0,6.3,51,0.00,,,0.00,WUHU21623XXSP,2013-09-16 19:06:00,
2013-09-16 14:11:00,64.6,46.5,30.33,North,0,5.1,6.3,52,0.00,,,0.00,WUHU21623XXSP,2013-09-16 19:11:00,
2013-09-16 14:16:00,64.2,46.1,30.32,NNE,22,1.1,5.4,52,0.00,,,0.00,WUHU21623XXSP,2013-09-16 19:16:00,
2013-09-16 14:21:00,64.2,46.1,30.32,NE,45,2.5,6.9,52,0.00,,,0.00,WUHU21623XXSP,2013-09-16 19:21:00,
2013-09-16 14:26:00,64.9,46.8,30.32,South,180,3.6,6.9,52,0.00,,,0.00,WUHU21623XXSP,2013-09-16 19:26:00,
2013-09-16 14:31:00,65.5,47.4,30.32,ENE,67,0.0,5.4,52,0.00,,,0.00,WUHU21623XXSP,2013-09-16 19:31:00,
2013-09-16 14:36:00,65.1,46.5,30.32,NE,45,3.8,9.2,51,0.00,,,0.00,WUHU21623XXSP,2013-09-16 19:36:00,
2013-09-16 14:41:00,64.9,46.3,30.32,NW,315,2.2,9.2,51,0.00,,,0.00,WUHU21623XXSP,2013-09-16 19:41:00,
2013-09-16 14:46:00,64.8,45.7,30.32,NE,45,3.8,6.7,50,0.00,,,0.00,WUHU21623XXSP,2013-09-16 19:46:00,
2013-09-16 14:51:00,65.1,46.5,30.32,ESE,112,3.4,6.5,51,0.00,,,0.00,WUHU21623XXSP,2013-09-16 19:51:00,
2013-09-16 14:56:00,65.5,47.4,30.31,ENE,67,1.1,6.5,52,0.00,,,0.00,WUHU21623XXSP,2013-09-16 19:56:00,
2013-09-16 15:01:00,66.0,47.4,30.31,NNE,22,0.9,4.7,51,0.00,,,0.00,WUHU21623XXSP,2013-09-16 20:01:00,
2013-09-16 15:06:00,65.8,46.2,30.31,NNW,337,4.7,9.2,49,0.00,,,0.00,WUHU21623XXSP,2013-09-16 20:06:00,
2013-09-16 15:11:00,65.3,46.2,30.31,NW,315,4.3,9.2,50,0.00,,,0.00,WUHU21623XXSP,2013-09-16 20:11:00,
2013-09-16 15:16:00,65.7,46.0,30.31,North,0,2.5,7.4,49,0.00,,,0.00,WUHU21623XXSP,2013-09-16 20:16:00,
2013-09-16 15:21:00,65.3,46.7,30.31,SE,135,3.8,7.4,51,0.00,,,0.00,WUHU21623XXSP,2013-09-16 20:21:00,
2013-09-16 15:26:00,65.5,46.9,30.31,NNE,22,4.7,4.7,51,0.00,,,0.00,WUHU21623XXSP,2013-09-16 20:26:00,
2013-09-16 15:31:00,66.0,46.3,30.30,NW,315,0.0,4.7,49,0.00,,,0.00,WUHU21623XXSP,2013-09-16 20:31:00,
2013-09-16 15:36:00,66.6,47.9,30.30,SE,135,0.0,4.0,51,0.00,,,0.00,WUHU21623XXSP,2013-09-16 20:36:00,
2013-09-16 15:41:00,66.2,47.6,30.30,East,90,0.0,2.9,51,0.00,,,0.00,WUHU21623XXSP,2013-09-16 20:41:00,
2013-09-16 15:46:00,66.7,48.1,30.31,ESE,112,0.0,6.3,51,0.00,,,0.00,WUHU21623XXSP,2013-09-16 20:46:00,
2013-09-16 15:51:00,66.4,46.7,30.30,SW,225,0.0,6.3,49,0.00,,,0.00,WUHU21623XXSP,2013-09-16 20:51:00,
2013-09-16 15:56:00,66.4,47.3,30.30,North,0,4.7,6.3,50,0.00,,,0.00,WUHU21623XXSP,2013-09-16 20:56:00,
2013-09-16 16:01:00,66.4,47.8,30.31,WNW,292,0.0,6.3,51,0.00,,,0.00,WUHU21623XXSP,2013-09-16 21:01:00,
2013-09-16 16:06:00,66.0,46.3,30.30,North,0,3.6,6.0,49,0.00,,,0.00,WUHU21623XXSP,2013-09-16 21:06:00,
2013-09-16 16:11:00,65.5,46.9,30.30,ENE,67,0.0,8.9,51,0.00,,,0.00,WUHU21623XXSP,2013-09-16 21:11:00,
2013-09-16 16:16:00,65.8,47.2,30.30,NNW,337,2.7,8.9,51,0.00,,,0.00,WUHU21623XXSP,2013-09-16 21:16:00,
2013-09-16 16:21:00,66.0,47.4,30.30,SSW,202,0.0,4.0,51,0.00,,,0.00,WUHU21623XXSP,2013-09-16 21:21:00,
2013-09-16 16:26:00,66.6,47.9,30.30,NNE,22,9.2,9.2,51,0.00,,,0.00,WUHU21623XXSP,2013-09-16 21:26:00,
2013-09-16 16:31:00,66.2,45.9,30.30,North,0,0.9,9.2,48,0.00,,,0.00,WUHU21623XXSP,2013-09-16 21:31:00,
2013-09-16 16:36:00,65.5,46.9,30.30,NNW,337,1.6,8.1,51,0.00,,,0.00,WUHU21623XXSP,2013-09-16 21:36:00,
2013-09-16 16:41:00,65.7,47.1,30.30,NNE,22,1.3,8.1,51,0.00,,,0.00,WUHU21623XXSP,2013-09-16 21:41:00,
2013-09-16 16:46:00,65.8,46.8,30.30,East,90,1.8,5.1,50,0.00,,,0.00,WUHU21623XXSP,2013-09-16 21:46:00,
2013-09-16 16:51:00,65.3,46.7,30.30,WNW,292,0.7,3.8,51,0.00,,,0.00,WUHU21623XXSP,2013-09-16 21:51:00,
2013-09-16 16:56:00,65.3,46.7,30.30,WNW,292,0.9,6.9,51,0.00,,,0.00,WUHU21623XXSP,2013-09-16 21:56:00,
2013-09-16 17:01:00,65.5,47.9,30.30,NNE,22,2.9,6.9,53,0.00,,,0.00,WUHU21623XXSP,2013-09-16 22:01:00,
2013-09-16 17:06:00,64.9,47.3,30.30,West,270,1.3,4.5,53,0.00,,,0.00,WUHU21623XXSP,2013-09-16 22:06:00,
2013-09-16 17:11:00,64.2,46.6,30.30,SE,135,0.0,6.0,53,0.00,,,0.00,WUHU21623XXSP,2013-09-16 22:11:00,
2013-09-16 17:16:00,63.5,46.5,30.30,North,0,2.7,6.0,54,0.00,,,0.00,WUHU21623XXSP,2013-09-16 22:16:00,
2013-09-16 17:21:00,63.3,45.8,30.30,North,0,5.8,6.9,53,0.00,,,0.00,WUHU21623XXSP,2013-09-16 22:21:00,
2013-09-16 17:26:00,63.0,46.0,30.30,South,180,1.8,6.9,54,0.00,,,0.00,WUHU21623XXSP,2013-09-16 22:26:00,
2013-09-16 17:31:00,62.4,46.5,30.30,WNW,292,0.0,6.0,56,0.00,,,0.00,WUHU21623XXSP,2013-09-16 22:31:00,
2013-09-16 17:36:00,62.2,46.3,30.30,NNW,337,1.1,4.5,56,0.00,,,0.00,WUHU21623XXSP,2013-09-16 22:36:00,
2013-09-16 17:41:00,61.9,46.5,30.30,SE,135,0.0,4.5,57,0.00,,,0.00,WUHU21623XXSP,2013-09-16 22:41:00,
2013-09-16 17:46:00,61.7,46.8,30.30,South,180,0.0,2.5,58,0.00,,,0.00,WUHU21623XXSP,2013-09-16 22:46:00,
2013-09-16 17:51:00,61.3,46.9,30.30,SSE,157,0.0,4.3,59,0.00,,,0.00,WUHU21623XXSP,2013-09-16 22:51:00,
2013-09-16 17:56:00,61.0,47.5,30.30,NW,315,0.0,4.3,61,0.00,,,0.00,WUHU21623XXSP,2013-09-16 22:56:00,
2013-09-16 18:01:00,60.6,47.2,30.30,SE,135,0.0,3.1,61,0.00,,,0.00,WUHU21623XXSP,2013-09-16 23:01:00,
2013-09-16 18:06:00,60.1,46.6,30.30,WSW,247,0.0,6.0,61,0.00,,,0.00,WUHU21623XXSP,2013-09-16 23:06:00,
2013-09-16 18:11:00,59.5,46.5,30.30,SW,225,1.1,6.0,62,0.00,,,0.00,WUHU21623XXSP,2013-09-16 23:11:00,
2013-09-16 18:16:00,59.2,46.6,30.30,WNW,292,0.0,4.7,63,0.00,,,0.00,WUHU21623XXSP,2013-09-16 23:16:00,
2013-09-16 18:21:00,58.8,46.6,30.30,WSW,247,3.6,3.6,64,0.00,,,0.00,WUHU21623XXSP,2013-09-16 23:21:00,
2013-09-16 18:26:00,58.6,46.5,30.30,SE,135,2.5,3.6,64,0.00,,,0.00,WUHU21623XXSP,2013-09-16 23:26:00,
2013-09-16 18:31:00,58.1,46.3,30.30,SSE,157,0.0,3.6,65,0.00,,,0.00,WUHU21623XXSP,2013-09-16 23:31:00,
2013-09-16 18:36:00,57.7,46.0,30.30,SW,225,0.0,3.6,65,0.00,,,0.00,WUHU21623XXSP,2013-09-16 23:36:00,
2013-09-16 18:41:00,57.0,45.7,30.30,SSW,202,0.0,2.5,66,0.00,,,0.00,WUHU21623XXSP,2013-09-16 23:41:00,
2013-09-16 18:46:00,56.7,45.8,30.30,East,90,0.0,3.4,67,0.00,,,0.00,WUHU21623XXSP,2013-09-16 23:46:00,
2013-09-16 18:51:00,56.1,45.7,30.30,NNW,337,0.0,3.4,68,0.00,,,0.00,WUHU21623XXSP,2013-09-16 23:51:00,
2013-09-16 18:56:00,55.6,45.6,30.29,SW,225,0.0,2.0,69,0.00,,,0.00,WUHU21623XXSP,2013-09-16 23:56:00,
2013-09-16 19:01:00,55.0,45.5,30.29,WSW,247,0.0,0.0,70,0.00,,,0.00,WUHU21623XXSP,2013-09-17 00:01:00,
2013-09-16 19:06:00,54.5,45.3,30.29,SW,225,0.0,0.0,71,0.00,,,0.00,WUHU21623XXSP,2013-09-17 00:06:00,
2013-09-16 19:11:00,54.1,44.9,30.29,South,180,0.0,2.5,71,0.00,,,0.00,WUHU21623XXSP,2013-09-17 00:11:00,
2013-09-16 19:16:00,53.8,44.9,30.29,SW,225,0.0,2.5,72,0.00,,,0.00,WUHU21623XXSP,2013-09-17 00:16:00,
2013-09-16 19:21:00,53.2,44.8,30.28,NNE,22,0.0,1.8,73,0.00,,,0.00,WUHU21623XXSP,2013-09-17 00:21:00,
2013-09-16 19:26:00,52.9,44.8,30.29,West,270,0.0,0.0,74,0.00,,,0.00,WUHU21623XXSP,2013-09-17 00:26:00,
2013-09-16 19:31:00,52.7,44.7,30.29,ESE,112,1.1,1.3,74,0.00,,,0.00,WUHU21623XXSP,2013-09-17 00:31:00,
2013-09-16 19:36:00,52.5,44.8,30.28,ESE,112,2.2,3.6,75,0.00,,,0.00,WUHU21623XXSP,2013-09-17 00:36:00,
2013-09-16 19:41:00,52.2,44.5,30.29,WSW,247,0.0,3.6,75,0.00,,,0.00,WUHU21623XXSP,2013-09-17 00:41:00,
2013-09-16 19:46:00,52.0,44.3,30.29,South,180,0.0,2.0,75,0.00,,,0.00,WUHU21623XXSP,2013-09-17 00:46:00,
2013-09-16 19:51:00,51.6,44.0,30.29,ESE,112,1.6,2.2,75,0.00,,,0.00,WUHU21623XXSP,2013-09-17 00:51:00,
2013-09-16 19:56:00,51.3,44.0,30.29,North,0,0.0,2.2,76,0.00,,,0.00,WUHU21623XXSP,2013-09-17 00:56:00,
2013-09-16 20:01:00,51.1,44.1,30.29,WNW,292,0.0,2.5,77,0.00,,,0.00,WUHU21623XXSP,2013-09-17 01:01:00,
2013-09-16 20:06:00,50.7,43.8,30.29,ENE,67,0.0,2.5,77,0.00,,,0.00,WUHU21623XXSP,2013-09-17 01:06:00,
2013-09-16 20:11:00,50.5,43.6,30.30,SSW,202,0.0,2.9,77,0.00,,,0.00,WUHU21623XXSP,2013-09-17 01:11:00,
2013-09-16 20:16:00,50.4,43.4,30.30,ENE,67,0.0,2.9,77,0.00,,,0.00,WUHU21623XXSP,2013-09-17 01:16:00,
2013-09-16 20:21:00,50.0,43.4,30.30,SE,135,1.6,1.6,78,0.00,,,0.00,WUHU21623XXSP,2013-09-17 01:21:00,
2013-09-16 20:26:00,49.8,43.2,30.30,West,270,0.0,2.5,78,0.00,,,0.00,WUHU21623XXSP,2013-09-17 01:26:00,
2013-09-16 20:31:00,49.6,43.0,30.30,NW,315,0.0,2.5,78,0.00,,,0.00,WUHU21623XXSP,2013-09-17 01:31:00,
2013-09-16 20:36:00,49.1,42.5,30.29,West,270,0.0,1.6,78,0.00,,,0.00,WUHU21623XXSP,2013-09-17 01:36:00,
2013-09-16 20:41:00,48.9,42.6,30.30,SE,135,0.0,2.9,79,0.00,,,0.00,WUHU21623XXSP,2013-09-17 01:41:00,
2013-09-16 20:46:00,48.7,42.5,30.30,WNW,292,0.0,2.9,79,0.00,,,0.00,WUHU21623XXSP,2013-09-17 01:46:00,
2013-09-16 20:51:00,48.6,42.3,30.29,NNE,22,0.0,2.5,79,0.00,,,0.00,WUHU21623XXSP,2013-09-17 01:51:00,
2013-09-16 20:56:00,48.4,42.1,30.29,SSE,157,0.0,2.5,79,0.00,,,0.00,WUHU21623XXSP,2013-09-17 01:56:00,
2013-09-16 21:01:00,48.0,42.1,30.29,WSW,247,0.0,1.6,80,0.00,,,0.00,WUHU21623XXSP,2013-09-17 02:01:00,
2013-09-16 21:06:00,48.0,42.1,30.30,SSE,157,0.0,3.1,80,0.00,,,0.00,WUHU21623XXSP,2013-09-17 02:06:00,
2013-09-16 21:11:00,48.0,42.1,30.30,SSW,202,0.0,3.1,80,0.00,,,0.00,WUHU21623XXSP,2013-09-17 02:11:00,
2013-09-16 21:16:00,48.0,42.1,30.30,ENE,67,0.0,2.2,80,0.00,,,0.00,WUHU21623XXSP,2013-09-17 02:16:00,
2013-09-16 21:21:00,47.7,41.8,30.30,NW,315,0.0,1.1,80,0.00,,,0.00,WUHU21623XXSP,2013-09-17 02:21:00,
2013-09-16 21:26:00,47.3,41.5,30.30,SSW,202,0.0,0.0,80,0.00,,,0.00,WUHU21623XXSP,2013-09-17 02:26:00,
2013-09-16 21:31:00,47.1,41.6,30.30,SSW,202,0.0,0.0,81,0.00,,,0.00,WUHU21623XXSP,2013-09-17 02:31:00,
2013-09-16 21:36:00,46.8,41.3,30.30,SSW,202,0.0,0.0,81,0.00,,,0.00,WUHU21623XXSP,2013-09-17 02:36:00,
2013-09-16 21:41:00,46.6,41.4,30.30,South,180,0.0,0.0,82,0.00,,,0.00,WUHU21623XXSP,2013-09-17 02:41:00,
2013-09-16 21:46:00,46.2,41.1,30.30,South,180,0.0,0.0,82,0.00,,,0.00,WUHU21623XXSP,2013-09-17 02:46:00,
2013-09-16 21:51:00,46.0,41.2,30.30,South,180,0.0,0.0,83,0.00,,,0.00,WUHU21623XXSP,2013-09-17 02:51:00,
2013-09-16 21:56:00,46.0,41.2,30.30,South,180,0.0,0.0,83,0.00,,,0.00,WUHU21623XXSP,2013-09-17 02:56:00,
2013-09-16 22:01:00,45.7,40.8,30.30,SSE,157,0.0,0.0,83,0.00,,,0.00,WUHU21623XXSP,2013-09-17 03:01:00,
2013-09-16 22:06:00,45.5,40.7,30.31,SSE,157,0.0,0.0,83,0.00,,,0.00,WUHU21623XXSP,2013-09-17 03:06:00,
2013-09-16 22:11:00,45.3,40.8,30.31,SSE,157,0.0,0.0,84,0.00,,,0.00,WUHU21623XXSP,2013-09-17 03:11:00,
2013-09-16 22:16:00,45.1,40.4,30.31,SSE,157,0.0,0.0,84,0.00,,,0.00,WUHU21623XXSP,2013-09-17 03:16:00,
2013-09-16 22:21:00,44.8,40.5,30.31,SSE,157,0.0,0.0,85,0.00,,,0.00,WUHU21623XXSP,2013-09-17 03:21:00,
2013-09-16 22:26:00,44.4,40.2,30.31,ESE,112,0.0,0.0,85,0.00,,,0.00,WUHU21623XXSP,2013-09-17 03:26:00,
2013-09-16 22:31:00,44.4,40.2,30.31,ESE,112,0.0,0.0,85,0.00,,,0.00,WUHU21623XXSP,2013-09-17 03:31:00,
2013-09-16 22:36:00,44.2,40.0,30.31,ESE,112,0.0,0.0,85,0.00,,,0.00,WUHU21623XXSP,2013-09-17 03:36:00,
2013-09-16 22:41:00,43.9,40.0,30.30,ESE,112,0.0,0.0,86,0.00,,,0.00,WUHU21623XXSP,2013-09-17 03:41:00,
2013-09-16 22:46:00,43.9,40.0,30.31,SSW,202,0.0,0.0,86,0.00,,,0.00,WUHU21623XXSP,2013-09-17 03:46:00,
2013-09-16 22:51:00,43.5,39.6,30.31,South,180,0.0,0.0,86,0.00,,,0.00,WUHU21623XXSP,2013-09-17 03:51:00,
2013-09-16 22:56:00,43.3,39.7,30.30,South,180,0.0,0.0,87,0.00,,,0.00,WUHU21623XXSP,2013-09-17 03:56:00,
2013-09-16 23:01:00,43.2,39.5,30.30,South,180,0.0,0.0,87,0.00,,,0.00,WUHU21623XXSP,2013-09-17 04:01:00,
2013-09-16 23:06:00,43.0,39.4,30.30,SE,135,0.0,0.0,87,0.00,,,0.00,WUHU21623XXSP,2013-09-17 04:06:00,
2013-09-16 23:11:00,42.6,39.0,30.31,SE,135,0.0,0.0,87,0.00,,,0.00,WUHU21623XXSP,2013-09-17 04:11:00,
2013-09-16 23:16:00,42.6,39.0,30.30,SE,135,0.0,0.0,87,0.00,,,0.00,WUHU21623XXSP,2013-09-17 04:16:00,
2013-09-16 23:21:00,42.6,39.3,30.31,SE,135,0.0,0.0,88,0.00,,,0.00,WUHU21623XXSP,2013-09-17 04:21:00,
2013-09-16 23:26:00,42.6,39.3,30.30,SSE,157,0.0,0.0,88,0.00,,,0.00,WUHU21623XXSP,2013-09-17 04:26:00,
2013-09-16 23:31:00,42.4,39.1,30.30,SSE,157,0.0,0.0,88,0.00,,,0.00,WUHU21623XXSP,2013-09-17 04:31:00,
2013-09-16 23:36:00,42.4,39.1,30.31,SSE,157,0.0,0.0,88,0.00,,,0.00,WUHU21623XXSP,2013-09-17 04:36:00,
2013-09-16 23:41:00,42.4,39.1,30.31,SSE,157,0.0,0.0,88,0.00,,,0.00,WUHU21623XXSP,2013-09-17 04:41:00,
2013-09-16 23:46:00,42.4,39.1,30.30,South,180,0.0,0.0,88,0.00,,,0.00,WUHU21623XXSP,2013-09-17 04:46:00,
2013-09-16 23:51:00,42.4,39.4,30.30,South,180,0.0,0.0,89,0.00,,,0.00,WUHU21623XXSP,2013-09-17 04:51:00,
2013-09-16 23:56:00,42.3,39.3,30.31,South,180,0.0,0.0,89,0.00,,,0.00,WUHU21623XXSP,2013-09-17 04:56:00,